createdAt,value
2018-10-17T00:01:51.023Z,96.50
2018-10-17T00:04:19.332Z,96.40
2018-10-17T00:06:47.646Z,96.30
2018-10-17T00:09:15.949Z,96.30
2018-10-17T00:11:44.294Z,96.20
2018-10-17T00:14:12.611Z,96.20
2018-10-17T00:16:40.958Z,96.20
2018-10-17T00:19:09.358Z,96.20
2018-10-17T00:21:37.636Z,96.20
2018-10-17T00:24:05.945Z,96.20
2018-10-17T00:26:34.296Z,96.30
2018-10-17T00:29:02.751Z,96.30
2018-10-17T00:31:30.960Z,96.30
2018-10-17T00:33:59.299Z,96.40
2018-10-17T00:36:27.598Z,96.50
2018-10-17T00:38:56.060Z,96.60
2018-10-17T00:41:25.191Z,96.80
2018-10-17T00:43:53.558Z,97.00
2018-10-17T00:46:21.898Z,97.10
2018-10-17T00:48:50.219Z,97.10
2018-10-17T00:51:18.583Z,97.20
2018-10-17T00:53:46.913Z,97.20
2018-10-17T00:56:15.199Z,97.20
2018-10-17T00:58:53.473Z,97.20
2018-10-17T01:01:21.819Z,97.20
2018-10-17T01:03:50.103Z,97.20
2018-10-17T01:06:18.491Z,97.10
2018-10-17T01:08:46.841Z,97.20
2018-10-17T01:11:15.220Z,97.20
2018-10-17T01:13:43.529Z,97.30
2018-10-17T01:16:11.888Z,97.20
2018-10-17T01:18:40.151Z,97.20
2018-10-17T01:21:08.510Z,97.20
2018-10-17T01:23:36.778Z,97.30
2018-10-17T01:26:05.058Z,97.30
2018-10-17T01:28:33.419Z,97.30
2018-10-17T01:31:01.900Z,97.40
2018-10-17T01:33:30.130Z,97.40
2018-10-17T01:35:58.477Z,97.40
2018-10-17T01:38:26.854Z,97.30
2018-10-17T01:40:55.174Z,97.30
2018-10-17T01:43:23.471Z,97.30
2018-10-17T01:45:51.770Z,97.40
2018-10-17T01:48:20.114Z,97.40
2018-10-17T01:50:48.470Z,97.40
2018-10-17T01:53:16.784Z,97.40
2018-10-17T01:55:45.127Z,97.40
2018-10-17T01:58:13.584Z,97.40
2018-10-17T02:00:41.919Z,97.40
2018-10-17T02:03:10.278Z,97.40
2018-10-17T02:05:38.560Z,97.30
2018-10-17T02:08:06.906Z,97.30
2018-10-17T02:10:35.219Z,97.30
2018-10-17T02:13:03.767Z,97.20
2018-10-17T02:15:31.973Z,97.20
2018-10-17T02:18:00.355Z,97.20
2018-10-17T02:20:28.643Z,97.20
2018-10-17T02:22:57.010Z,97.30
2018-10-17T02:25:25.363Z,97.30
2018-10-17T02:27:53.756Z,97.20
2018-10-17T02:30:22.117Z,97.20
2018-10-17T02:32:50.502Z,97.30
2018-10-17T02:35:19.416Z,97.30
2018-10-17T02:37:48.000Z,97.30
2018-10-17T02:40:16.380Z,97.40
2018-10-17T02:42:44.681Z,97.40
2018-10-17T02:45:13.992Z,97.40
2018-10-17T02:47:42.320Z,97.40
2018-10-17T02:50:11.861Z,97.70
2018-10-17T02:52:43.266Z,97.40
2018-10-17T02:55:14.761Z,97.50
2018-10-17T02:57:43.812Z,97.50
2018-10-17T03:00:12.202Z,97.60
2018-10-17T03:02:40.547Z,97.60
2018-10-17T03:05:08.967Z,97.60
2018-10-17T03:07:37.278Z,97.60
2018-10-17T03:10:05.706Z,97.60
2018-10-17T03:12:34.066Z,97.70
2018-10-17T03:15:02.403Z,97.70
2018-10-17T03:17:30.766Z,98.10
2018-10-17T03:19:59.149Z,97.80
2018-10-17T03:22:27.489Z,97.90
2018-10-17T03:24:55.932Z,97.90
2018-10-17T03:27:24.241Z,97.90
2018-10-17T03:29:52.607Z,97.90
2018-10-17T03:32:20.965Z,97.90
2018-10-17T03:34:49.372Z,97.90
2018-10-17T03:37:17.787Z,97.90
2018-10-17T03:39:46.081Z,97.90
2018-10-17T03:42:14.421Z,97.90
2018-10-17T03:44:42.783Z,97.90
2018-10-17T03:47:11.200Z,97.90
2018-10-17T03:49:39.563Z,98.00
2018-10-17T03:52:07.844Z,98.30
2018-10-17T03:54:36.152Z,98.00
2018-10-17T03:57:04.661Z,98.00
2018-10-17T03:59:33.186Z,98.00
2018-10-17T04:02:01.472Z,98.00
2018-10-17T04:04:30.022Z,97.90
2018-10-17T04:06:58.413Z,98.00
2018-10-17T04:09:26.746Z,98.00
2018-10-17T04:11:55.162Z,98.00
2018-10-17T04:14:23.564Z,98.10
2018-10-17T04:16:51.932Z,98.10
2018-10-17T04:19:20.347Z,98.10
2018-10-17T04:21:48.749Z,98.00
2018-10-17T04:24:17.209Z,97.90
2018-10-17T04:26:46.073Z,97.90
2018-10-17T04:29:14.597Z,97.90
2018-10-17T04:31:43.038Z,97.90
2018-10-17T04:34:11.450Z,97.90
2018-10-17T04:36:39.929Z,97.90
2018-10-17T04:39:10.268Z,97.90
2018-10-17T04:41:38.614Z,97.90
2018-10-17T04:44:07.729Z,97.90
2018-10-17T04:46:36.076Z,98.00
2018-10-17T04:49:04.852Z,97.90
2018-10-17T04:51:33.137Z,97.90
2018-10-17T04:54:01.530Z,97.90
2018-10-17T04:56:30.071Z,98.00
2018-10-17T04:58:58.480Z,98.00
2018-10-17T05:01:27.010Z,98.00
2018-10-17T05:03:55.530Z,98.00
2018-10-17T05:06:23.896Z,98.10
2018-10-17T05:08:52.754Z,98.10
2018-10-17T05:11:21.363Z,98.10
2018-10-17T05:13:49.963Z,98.20
2018-10-17T05:16:18.299Z,98.30
2018-10-17T05:25:44.007Z,98.40
2018-10-17T05:28:12.735Z,98.00
2018-10-17T05:30:41.256Z,98.10
2018-10-17T05:33:09.651Z,98.20
2018-10-17T05:35:38.010Z,98.20
2018-10-17T05:38:06.484Z,98.30
2018-10-17T05:40:35.150Z,98.30
2018-10-17T05:43:03.694Z,98.30
2018-10-17T05:45:32.122Z,98.20
2018-10-17T05:48:00.490Z,98.20
2018-10-17T05:50:28.849Z,98.30
2018-10-17T05:52:57.353Z,98.30
2018-10-17T05:55:25.802Z,98.40
2018-10-17T05:57:54.502Z,98.40
2018-10-17T06:00:23.024Z,98.40
2018-10-17T06:02:51.570Z,98.50
2018-10-17T06:05:19.965Z,98.50
2018-10-17T06:07:48.413Z,98.60
2018-10-17T06:10:16.976Z,98.60
2018-10-17T06:12:45.412Z,98.70
2018-10-17T06:15:13.742Z,98.70
2018-10-17T06:17:42.225Z,98.80
2018-10-17T06:20:10.766Z,98.80
2018-10-17T06:22:39.109Z,98.90
2018-10-17T06:25:09.859Z,98.90
2018-10-17T06:27:38.161Z,98.90
2018-10-17T06:30:07.873Z,99.00
2018-10-17T06:32:36.245Z,99.10
2018-10-17T06:35:05.117Z,99.10
2018-10-17T06:37:33.409Z,99.10
2018-10-17T06:40:01.785Z,99.10
2018-10-17T06:42:30.165Z,99.20
2018-10-17T06:44:58.542Z,99.20
2018-10-17T06:47:26.917Z,99.30
2018-10-17T06:49:55.254Z,99.40
2018-10-17T06:52:23.565Z,99.40
2018-10-17T06:54:51.985Z,99.70
2018-10-17T06:57:20.405Z,99.50
2018-10-17T06:59:48.782Z,99.60
2018-10-17T07:02:17.326Z,99.70
2018-10-17T07:04:45.677Z,99.80
2018-10-17T07:07:14.108Z,99.90
2018-10-17T07:09:42.393Z,99.90
2018-10-17T07:12:10.898Z,99.90
2018-10-17T07:14:39.352Z,99.90
2018-10-17T07:17:07.755Z,99.90
2018-10-17T07:19:36.054Z,99.90
2018-10-17T07:22:04.465Z,99.90
2018-10-17T07:24:32.876Z,99.90
2018-10-17T07:27:01.284Z,99.90
2018-10-17T07:29:29.841Z,99.90
2018-10-17T07:31:58.178Z,99.90
2018-10-17T07:34:26.593Z,99.90
2018-10-17T07:36:55.093Z,99.90
2018-10-17T07:39:23.417Z,99.90
2018-10-17T07:41:51.804Z,99.90
2018-10-17T07:44:20.173Z,99.90
2018-10-17T07:46:48.496Z,99.90
2018-10-17T07:49:16.829Z,99.90
2018-10-17T07:51:45.159Z,99.90
2018-10-17T07:54:13.586Z,99.90
2018-10-17T07:56:42.284Z,99.90
2018-10-17T07:59:10.728Z,99.90
2018-10-17T08:01:39.082Z,99.90
2018-10-17T08:04:07.412Z,99.90
2018-10-17T08:06:35.789Z,99.90
2018-10-17T08:09:05.997Z,99.90
2018-10-17T08:11:34.437Z,99.90
2018-10-17T08:14:02.820Z,99.90
2018-10-17T08:16:31.218Z,99.90
2018-10-17T08:18:59.574Z,99.90
2018-10-17T08:21:28.006Z,99.70
2018-10-17T08:23:56.491Z,99.20
2018-10-17T08:26:24.805Z,98.60
2018-10-17T08:28:53.217Z,98.30
2018-10-17T08:31:21.582Z,97.70
2018-10-17T08:33:49.921Z,97.40
2018-10-17T08:36:18.451Z,97.00
2018-10-17T08:38:46.650Z,96.80
2018-10-17T08:41:15.296Z,96.60
2018-10-17T08:43:43.709Z,96.40
2018-10-17T08:46:12.560Z,96.30
2018-10-17T08:48:40.941Z,96.20
2018-10-17T08:51:09.512Z,96.10
2018-10-17T08:53:37.825Z,96.10
2018-10-17T08:56:06.322Z,96.00
2018-10-17T08:58:34.639Z,96.20
2018-10-17T09:01:03.066Z,95.60
2018-10-17T09:03:31.441Z,95.00
2018-10-17T09:05:59.879Z,94.70
2018-10-17T09:08:28.173Z,94.80
2018-10-17T09:10:56.549Z,94.80
2018-10-17T09:13:25.115Z,94.80
2018-10-17T09:15:53.492Z,94.70
2018-10-17T09:18:21.910Z,94.60
2018-10-17T09:20:50.542Z,94.50
2018-10-17T09:23:18.633Z,94.40
2018-10-17T09:25:47.106Z,94.40
2018-10-17T09:28:15.553Z,94.10
2018-10-17T09:30:43.929Z,93.60
2018-10-17T09:33:12.250Z,93.30
2018-10-17T09:35:40.678Z,93.10
2018-10-17T09:38:09.071Z,93.00
2018-10-17T09:40:37.433Z,92.80
2018-10-17T09:43:06.054Z,92.70
2018-10-17T09:45:34.398Z,92.60
2018-10-17T09:48:02.739Z,92.30
2018-10-17T09:50:31.128Z,91.80
2018-10-17T09:52:59.516Z,91.50
2018-10-17T09:55:27.868Z,91.50
2018-10-17T09:57:56.256Z,91.50
2018-10-17T10:00:29.765Z,91.00
2018-10-17T10:02:58.185Z,90.70
2018-10-17T10:05:26.505Z,90.50
2018-10-17T10:07:54.829Z,90.20
2018-10-17T10:10:23.204Z,89.70
2018-10-17T10:12:51.561Z,89.00
2018-10-17T10:15:20.033Z,88.10
2018-10-17T10:17:48.538Z,87.50
2018-10-17T10:20:16.926Z,87.30
2018-10-17T10:22:45.282Z,86.50
2018-10-17T10:25:13.714Z,84.70
2018-10-17T10:27:42.018Z,82.30
2018-10-17T10:30:10.422Z,79.80
2018-10-17T10:32:38.803Z,77.40
2018-10-17T10:35:07.371Z,75.50
2018-10-17T10:37:35.833Z,73.00
2018-10-17T10:40:04.690Z,70.80
2018-10-17T10:42:33.074Z,69.30
2018-10-17T10:45:01.546Z,67.40
2018-10-17T10:47:29.860Z,64.50
2018-10-17T10:49:58.343Z,62.50
2018-10-17T10:52:26.694Z,61.00
2018-10-17T10:55:01.801Z,60.00
2018-10-17T10:57:30.177Z,59.60
2018-10-17T10:59:58.563Z,58.50
2018-10-17T11:02:27.017Z,57.70
2018-10-17T11:04:55.494Z,56.90
2018-10-17T11:07:23.913Z,55.50
2018-10-17T11:09:52.293Z,55.50
2018-10-17T11:12:20.697Z,55.80
2018-10-17T11:14:49.289Z,54.80
2018-10-17T11:17:17.493Z,54.10
2018-10-17T11:19:45.833Z,53.70
2018-10-17T11:22:14.166Z,53.60
2018-10-17T11:24:42.742Z,53.20
2018-10-17T11:27:11.239Z,53.00
2018-10-17T11:29:39.477Z,53.10
2018-10-17T11:32:07.861Z,52.20
2018-10-17T11:34:36.234Z,51.40
2018-10-17T11:37:04.586Z,49.90
2018-10-17T11:39:32.913Z,49.50
2018-10-17T11:42:01.277Z,49.80
2018-10-17T11:44:29.597Z,48.80
2018-10-17T11:46:58.010Z,48.30
2018-10-17T11:49:26.345Z,48.00
2018-10-17T11:51:54.653Z,47.40
2018-10-17T11:54:22.973Z,47.50
2018-10-17T11:56:51.365Z,47.90
2018-10-17T11:59:19.731Z,48.00
2018-10-17T12:01:48.065Z,47.40
2018-10-17T12:04:16.794Z,47.50
2018-10-17T12:06:44.739Z,47.00
2018-10-17T12:09:13.096Z,46.40
2018-10-17T12:11:41.502Z,46.10
2018-10-17T12:14:09.733Z,45.60
2018-10-17T12:16:38.062Z,44.50
2018-10-17T12:19:12.921Z,43.40
2018-10-17T12:21:41.246Z,43.00
2018-10-17T12:24:09.633Z,43.80
2018-10-17T12:26:37.941Z,43.40
2018-10-17T12:29:06.274Z,42.60
2018-10-17T12:31:34.626Z,41.80
2018-10-17T12:34:03.010Z,40.60
2018-10-17T12:36:31.425Z,40.80
2018-10-17T12:38:59.821Z,39.70
2018-10-17T12:41:28.121Z,39.10
2018-10-17T12:43:56.644Z,38.80
2018-10-17T12:46:24.989Z,39.10
2018-10-17T12:48:53.341Z,38.90
2018-10-17T12:51:21.682Z,38.20
2018-10-17T12:53:50.049Z,37.60
2018-10-17T12:56:18.510Z,38.80
2018-10-17T12:58:46.861Z,38.80
2018-10-17T13:01:15.339Z,38.80
2018-10-17T13:03:43.653Z,38.70
2018-10-17T13:06:12.070Z,38.30
2018-10-17T13:08:40.496Z,37.80
2018-10-17T13:11:09.371Z,38.30
2018-10-17T13:13:37.646Z,38.70
2018-10-17T13:16:06.248Z,38.90
2018-10-17T13:18:34.614Z,38.70
2018-10-17T13:21:02.938Z,39.10
2018-10-17T13:23:31.314Z,39.70
2018-10-17T13:25:59.835Z,40.30
2018-10-17T13:28:28.225Z,41.50
2018-10-17T13:30:56.715Z,42.50
2018-10-17T13:33:24.996Z,43.70
2018-10-17T13:35:53.398Z,44.70
2018-10-17T13:38:21.800Z,45.60
2018-10-17T13:40:50.150Z,47.40
2018-10-17T13:43:18.693Z,48.70
2018-10-17T13:45:46.916Z,49.90
2018-10-17T13:48:15.323Z,51.10
2018-10-17T13:50:43.702Z,51.50
2018-10-17T13:53:12.216Z,52.30
2018-10-17T13:55:40.497Z,52.80
2018-10-17T13:58:08.866Z,53.00
2018-10-17T14:00:37.173Z,53.00
2018-10-17T14:03:05.584Z,52.70
2018-10-17T14:05:33.937Z,53.80
2018-10-17T14:08:02.313Z,54.40
2018-10-17T14:10:30.694Z,54.70
2018-10-17T14:12:59.192Z,55.30
2018-10-17T14:15:27.604Z,54.90
2018-10-17T14:17:56.005Z,55.40
2018-10-17T14:20:24.313Z,56.30
2018-10-17T14:22:52.717Z,56.60
2018-10-17T14:25:21.261Z,57.40
2018-10-17T14:27:54.644Z,58.00
2018-10-17T14:30:23.004Z,58.20
2018-10-17T14:32:51.451Z,58.10
2018-10-17T14:35:19.781Z,58.10
2018-10-17T14:37:48.242Z,58.10
2018-10-17T14:40:16.506Z,59.10
2018-10-17T14:42:44.865Z,59.90
2018-10-17T14:45:13.344Z,60.40
2018-10-17T14:47:41.719Z,60.40
2018-10-17T14:50:10.072Z,61.60
2018-10-17T14:52:38.486Z,62.30
2018-10-17T14:55:07.840Z,62.90
2018-10-17T14:57:36.267Z,63.70
2018-10-17T15:00:05.520Z,64.10
2018-10-17T15:02:34.180Z,65.00
2018-10-17T15:05:02.627Z,65.10
2018-10-17T15:07:31.024Z,65.30
2018-10-17T15:09:59.502Z,65.90
2018-10-17T15:12:27.801Z,66.30
2018-10-17T15:14:56.266Z,66.80
2018-10-17T15:17:24.584Z,67.50
2018-10-17T15:19:52.938Z,67.70
2018-10-17T15:22:21.385Z,68.20
2018-10-17T15:24:49.818Z,68.80
2018-10-17T15:27:18.166Z,69.30
2018-10-17T15:29:46.474Z,69.90
2018-10-17T15:32:14.866Z,70.30
2018-10-17T15:34:43.416Z,70.90
2018-10-17T15:37:11.764Z,71.10
2018-10-17T15:39:40.125Z,71.40
2018-10-17T15:42:08.498Z,71.90
2018-10-17T15:44:37.000Z,72.40
2018-10-17T15:47:05.787Z,72.80
2018-10-17T15:49:34.089Z,72.90
2018-10-17T15:52:02.449Z,73.10
2018-10-17T15:54:30.797Z,73.10
2018-10-17T15:56:59.277Z,73.20
2018-10-17T15:59:27.585Z,73.60
2018-10-17T16:01:56.006Z,74.50
2018-10-17T16:04:24.341Z,74.40
2018-10-17T16:06:52.653Z,74.90
2018-10-17T16:09:21.137Z,75.10
2018-10-17T16:11:49.501Z,75.60
2018-10-17T16:14:17.929Z,76.10
2018-10-17T16:16:46.238Z,76.80
2018-10-17T16:19:14.630Z,77.10
2018-10-17T16:21:43.005Z,77.80
2018-10-17T16:24:11.518Z,78.40
2018-10-17T16:26:39.725Z,78.80
2018-10-17T16:29:08.137Z,79.10
2018-10-17T16:31:36.493Z,79.40
2018-10-17T16:34:04.917Z,79.70
2018-10-17T16:36:33.268Z,80.00
2018-10-17T16:39:01.655Z,80.10
2018-10-17T16:41:30.126Z,80.60
2018-10-17T16:43:58.462Z,81.00
2018-10-17T16:46:26.800Z,81.30
2018-10-17T16:48:55.122Z,81.60
2018-10-17T16:51:23.454Z,81.70
2018-10-17T16:53:51.927Z,81.90
2018-10-17T16:56:20.282Z,82.00
2018-10-17T16:58:48.681Z,82.30
2018-10-17T17:01:17.043Z,82.60
2018-10-17T17:03:45.425Z,83.10
2018-10-17T17:06:13.867Z,83.50
2018-10-17T17:08:42.205Z,83.90
2018-10-17T17:11:10.577Z,84.20
2018-10-17T17:13:38.970Z,84.60
2018-10-17T17:16:07.452Z,84.60
2018-10-17T17:18:36.025Z,84.70
2018-10-17T17:21:04.668Z,84.90
2018-10-17T17:23:32.964Z,85.30
2018-10-17T17:26:01.379Z,85.70
2018-10-17T17:28:29.745Z,86.10
2018-10-17T17:30:58.142Z,86.40
2018-10-17T17:33:26.601Z,86.70
2018-10-17T17:35:55.106Z,86.90
2018-10-17T17:38:23.451Z,87.10
2018-10-17T17:40:51.786Z,87.40
2018-10-17T17:43:20.244Z,87.40
2018-10-17T17:45:48.606Z,87.60
2018-10-17T17:48:16.956Z,87.80
2018-10-17T17:50:45.357Z,88.10
2018-10-17T17:53:13.813Z,88.20
2018-10-17T17:55:42.237Z,88.60
2018-10-17T17:58:10.786Z,89.00
2018-10-17T18:00:39.138Z,89.10
2018-10-17T18:03:07.507Z,89.30
2018-10-17T18:05:35.898Z,89.40
2018-10-17T18:08:04.350Z,89.50
2018-10-17T18:10:32.714Z,89.80
2018-10-17T18:13:01.489Z,90.00
2018-10-17T18:15:29.983Z,90.30
2018-10-17T18:17:58.361Z,90.30
2018-10-17T18:20:26.751Z,90.40
2018-10-17T18:22:55.107Z,90.50
2018-10-17T18:25:23.462Z,90.60
2018-10-17T18:27:52.101Z,90.60
2018-10-17T18:30:20.482Z,90.70
2018-10-17T18:32:48.953Z,90.70
2018-10-17T18:35:17.309Z,90.70
2018-10-17T18:37:45.642Z,90.80
2018-10-17T18:40:14.071Z,90.90
2018-10-17T18:42:42.357Z,91.00
2018-10-17T18:45:10.724Z,91.10
2018-10-17T18:47:39.192Z,91.30
2018-10-17T18:50:07.850Z,91.30
2018-10-17T18:52:36.270Z,91.30
2018-10-17T18:55:05.429Z,91.30
2018-10-17T18:57:33.801Z,91.70
2018-10-17T19:00:02.389Z,91.50
2018-10-17T19:02:30.839Z,91.50
2018-10-17T19:04:59.237Z,91.50
2018-10-17T19:07:27.726Z,91.50
2018-10-17T19:09:56.144Z,91.60
2018-10-17T19:12:24.587Z,91.60
2018-10-17T19:14:52.976Z,91.70
2018-10-17T19:17:21.309Z,91.70
2018-10-17T19:19:49.669Z,91.80
2018-10-17T19:22:18.026Z,91.80
2018-10-17T19:24:46.575Z,91.70
2018-10-17T19:27:15.130Z,91.80
2018-10-17T19:29:43.863Z,92.00
2018-10-17T19:32:12.242Z,92.00
2018-10-17T19:34:40.850Z,92.00
2018-10-17T19:37:09.262Z,92.00
2018-10-17T19:39:37.930Z,92.10
2018-10-17T19:42:06.400Z,92.10
2018-10-17T19:44:34.754Z,92.10
2018-10-17T19:47:03.122Z,92.20
2018-10-17T19:49:31.450Z,92.20
2018-10-17T19:51:59.822Z,92.10
2018-10-17T19:54:28.178Z,92.10
2018-10-17T19:56:56.587Z,92.20
2018-10-17T19:59:25.032Z,92.10
2018-10-17T20:01:53.441Z,92.10
2018-10-17T20:04:21.926Z,92.50
2018-10-17T20:06:50.337Z,92.10
2018-10-17T20:09:18.741Z,92.20
2018-10-17T20:11:47.127Z,92.30
2018-10-17T20:14:15.567Z,92.30
2018-10-17T20:16:43.990Z,92.30
2018-10-17T20:19:12.365Z,92.30
2018-10-17T20:21:40.756Z,92.40
2018-10-17T20:24:09.346Z,92.40
2018-10-17T20:26:37.700Z,92.50
2018-10-17T20:29:06.350Z,92.60
2018-10-17T20:31:34.694Z,92.50
2018-10-17T20:34:03.081Z,92.60
2018-10-17T20:36:31.433Z,92.70
2018-10-17T20:38:59.842Z,92.60
2018-10-17T20:41:28.225Z,92.70
2018-10-17T20:43:56.741Z,92.80
2018-10-17T20:46:25.081Z,92.80
2018-10-17T20:48:53.473Z,92.80
2018-10-17T20:51:21.941Z,93.00
2018-10-17T20:53:50.400Z,93.00
2018-10-17T20:56:19.034Z,93.00
2018-10-17T20:58:47.281Z,93.10
2018-10-17T21:01:15.693Z,93.20
2018-10-17T21:03:44.250Z,93.20
2018-10-17T21:06:12.645Z,93.30
2018-10-17T21:08:40.966Z,93.40
2018-10-17T21:11:09.417Z,93.40
2018-10-17T21:13:37.691Z,93.50
2018-10-17T21:16:06.043Z,93.50
2018-10-17T21:18:34.609Z,93.60
2018-10-17T21:21:02.908Z,93.60
2018-10-17T21:23:31.353Z,93.70
2018-10-17T21:26:02.613Z,93.70
2018-10-17T21:28:31.061Z,93.80
2018-10-17T21:30:59.506Z,94.00
2018-10-17T21:33:27.897Z,94.20
2018-10-17T21:35:56.263Z,94.50
2018-10-17T21:38:25.038Z,94.50
2018-10-17T21:40:53.497Z,94.60
2018-10-17T21:43:21.938Z,94.70
2018-10-17T21:45:50.328Z,94.80
2018-10-17T21:48:18.767Z,94.90
2018-10-17T21:50:47.409Z,95.00
2018-10-17T21:53:15.824Z,95.10
2018-10-17T21:55:44.304Z,95.20
2018-10-17T21:58:12.689Z,95.20
2018-10-17T22:00:41.169Z,95.30
2018-10-17T22:03:09.615Z,95.30
2018-10-17T22:05:38.025Z,95.30
2018-10-17T22:08:06.480Z,95.30
2018-10-17T22:10:34.749Z,95.30
2018-10-17T22:13:03.221Z,95.40
2018-10-17T22:15:31.733Z,95.40
2018-10-17T22:18:00.107Z,95.40
2018-10-17T22:20:28.525Z,95.70
2018-10-17T22:22:56.927Z,95.40
2018-10-17T22:25:25.281Z,95.50
2018-10-17T22:27:53.696Z,95.50
2018-10-17T22:30:22.081Z,95.60
2018-10-17T22:32:50.486Z,95.60
2018-10-17T22:35:18.950Z,95.60
2018-10-17T22:37:47.313Z,95.80
2018-10-17T22:40:15.667Z,95.60
2018-10-17T22:42:44.015Z,95.70
2018-10-17T22:45:12.356Z,95.70
2018-10-17T22:47:40.737Z,95.70
2018-10-17T22:50:09.814Z,95.80
2018-10-17T22:52:38.213Z,95.80
2018-10-17T22:55:06.753Z,95.80
2018-10-17T22:57:35.125Z,95.80
2018-10-17T23:00:03.516Z,95.80
2018-10-17T23:02:31.884Z,95.80
2018-10-17T23:05:00.270Z,95.90
2018-10-17T23:07:28.630Z,96.00
2018-10-17T23:09:56.980Z,96.00
2018-10-17T23:12:25.401Z,96.00
2018-10-17T23:14:53.842Z,96.10
2018-10-17T23:17:22.226Z,96.10
2018-10-17T23:19:50.633Z,96.10
2018-10-17T23:22:19.057Z,96.20
2018-10-17T23:24:47.458Z,96.20
2018-10-17T23:27:15.877Z,96.20
2018-10-17T23:29:44.294Z,96.20
2018-10-17T23:32:12.746Z,96.20
2018-10-17T23:34:41.058Z,96.20
2018-10-17T23:37:09.457Z,96.20
2018-10-17T23:39:37.934Z,96.20
2018-10-17T23:42:06.592Z,96.20
2018-10-17T23:44:34.853Z,96.30
2018-10-17T23:47:03.228Z,96.30
2018-10-17T23:49:31.609Z,96.30
2018-10-17T23:51:59.937Z,96.30
2018-10-17T23:54:28.313Z,96.40
2018-10-17T23:56:56.745Z,96.40
2018-10-17T23:59:25.121Z,96.40
